createdAt,value
2022-11-27T00:01:25.454Z,8.53
2022-11-27T00:03:54.821Z,7.00
2022-11-27T00:06:25.615Z,9.73
2022-11-27T00:08:57.087Z,6.50
2022-11-27T00:11:27.171Z,5.40
2022-11-27T00:13:55.574Z,9.00
2022-11-27T00:16:24.720Z,6.63
2022-11-27T00:18:53.443Z,8.53
2022-11-27T00:21:24.305Z,6.53
2022-11-27T00:23:54.464Z,6.30
2022-11-27T00:26:24.291Z,8.57
2022-11-27T00:28:53.612Z,4.10
2022-11-27T00:31:27.101Z,10.53
2022-11-27T00:33:55.617Z,5.07
2022-11-27T00:36:24.409Z,12.00
2022-11-27T00:38:54.298Z,7.23
2022-11-27T00:41:24.478Z,4.43
2022-11-27T00:43:53.938Z,5.50
2022-11-27T00:46:28.008Z,5.80
2022-11-27T00:48:56.817Z,7.50
2022-11-27T00:51:26.090Z,4.83
2022-11-27T00:53:56.712Z,3.57
2022-11-27T00:56:26.737Z,6.30
2022-11-27T00:58:55.377Z,6.23
2022-11-27T01:01:25.042Z,6.23
2022-11-27T01:03:53.396Z,6.40
2022-11-27T01:06:22.230Z,5.03
2022-11-27T01:08:51.042Z,7.70
2022-11-27T01:11:22.468Z,7.03
2022-11-27T01:13:50.649Z,13.30
2022-11-27T01:16:21.011Z,7.90
2022-11-27T01:18:50.930Z,8.97
2022-11-27T01:21:21.106Z,6.47
2022-11-27T01:23:50.673Z,8.90
2022-11-27T01:26:21.422Z,6.43
2022-11-27T01:28:52.510Z,7.80
2022-11-27T01:31:23.410Z,8.27
2022-11-27T01:33:55.157Z,8.03
2022-11-27T01:36:23.529Z,9.87
2022-11-27T01:38:52.367Z,12.23
2022-11-27T01:41:25.924Z,8.57
2022-11-27T01:43:57.608Z,9.17
2022-11-27T01:46:40.677Z,9.40
2022-11-27T01:49:29.239Z,11.90
2022-11-27T01:52:02.407Z,10.23
2022-11-27T01:54:34.355Z,10.73
2022-11-27T01:57:09.076Z,10.83
2022-11-27T01:59:37.493Z,8.20
2022-11-27T02:02:05.958Z,15.57
2022-11-27T02:04:34.223Z,16.13
2022-11-27T02:07:02.673Z,9.83
2022-11-27T02:09:31.677Z,9.73
2022-11-27T02:12:10.419Z,8.57
2022-11-27T02:14:50.157Z,9.97
2022-11-27T02:17:22.311Z,9.40
2022-11-27T02:20:12.085Z,9.97
2022-11-27T02:22:57.779Z,8.50
2022-11-27T02:25:34.871Z,8.90
2022-11-27T02:28:22.590Z,9.00
2022-11-27T02:30:57.947Z,9.47
2022-11-27T02:33:27.199Z,5.80
2022-11-27T02:36:00.761Z,4.93
2022-11-27T02:38:34.996Z,6.17
2022-11-27T02:41:08.751Z,9.20
2022-11-27T02:43:40.382Z,5.73
2022-11-27T02:46:12.088Z,7.07
2022-11-27T02:48:47.000Z,5.90
2022-11-27T02:51:18.374Z,6.10
2022-11-27T02:53:51.003Z,8.40
2022-11-27T02:56:23.359Z,8.70
2022-11-27T02:58:54.757Z,10.93
2022-11-27T03:01:25.961Z,11.87
2022-11-27T03:03:58.186Z,8.10
2022-11-27T03:06:32.117Z,10.27
2022-11-27T03:09:06.245Z,11.23
2022-11-27T03:11:35.243Z,14.73
2022-11-27T03:14:06.935Z,18.70
2022-11-27T03:16:42.252Z,12.43
2022-11-27T03:19:19.855Z,15.47
2022-11-27T03:21:51.870Z,15.97
2022-11-27T03:24:20.686Z,15.27
2022-11-27T03:26:49.352Z,16.33
2022-11-27T03:29:21.207Z,20.10
2022-11-27T03:31:51.907Z,12.90
2022-11-27T03:34:20.607Z,21.17
2022-11-27T03:36:48.874Z,17.30
2022-11-27T03:39:17.183Z,12.80
2022-11-27T03:41:52.103Z,13.87
2022-11-27T03:44:29.105Z,14.63
2022-11-27T03:47:10.198Z,12.10
2022-11-27T03:49:53.300Z,12.80
2022-11-27T03:52:28.133Z,10.00
2022-11-27T03:55:02.728Z,7.13
2022-11-27T03:57:36.947Z,9.87
2022-11-27T04:00:08.142Z,9.50
2022-11-27T04:02:43.197Z,8.50
2022-11-27T04:05:12.015Z,8.90
2022-11-27T04:07:40.779Z,7.37
2022-11-27T04:10:11.658Z,5.70
2022-11-27T04:12:39.974Z,7.60
2022-11-27T04:15:09.082Z,8.53
2022-11-27T04:17:37.262Z,5.77
2022-11-27T04:20:09.128Z,9.17
2022-11-27T04:22:37.463Z,4.10
2022-11-27T04:25:06.390Z,7.40
2022-11-27T04:27:34.706Z,4.53
2022-11-27T04:30:02.899Z,5.80
2022-11-27T04:32:31.194Z,6.97
2022-11-27T04:34:59.431Z,9.00
2022-11-27T04:37:29.103Z,5.93
2022-11-27T04:39:57.244Z,7.97
2022-11-27T04:42:25.750Z,9.67
2022-11-27T04:44:53.887Z,10.67
2022-11-27T04:47:22.893Z,8.80
2022-11-27T04:49:51.150Z,9.40
2022-11-27T04:52:19.339Z,14.90
2022-11-27T04:54:49.331Z,13.37
2022-11-27T04:57:17.532Z,17.07
2022-11-27T04:59:45.726Z,11.73
2022-11-27T05:02:14.155Z,15.77
2022-11-27T05:04:42.819Z,18.90
2022-11-27T05:07:11.193Z,14.23
2022-11-27T05:09:39.607Z,14.80
2022-11-27T05:12:09.494Z,15.63
2022-11-27T05:14:38.383Z,16.00
2022-11-27T05:17:06.762Z,15.83
2022-11-27T05:19:34.912Z,14.23
2022-11-27T05:22:03.601Z,15.80
2022-11-27T05:24:32.500Z,18.30
2022-11-27T05:27:00.733Z,21.90
2022-11-27T05:29:30.497Z,15.73
2022-11-27T05:31:58.814Z,15.93
2022-11-27T05:34:27.497Z,16.47
2022-11-27T05:36:56.184Z,15.70
2022-11-27T05:39:24.486Z,18.30
2022-11-27T05:41:52.792Z,19.50
2022-11-27T05:44:20.987Z,11.87
2022-11-27T05:46:50.718Z,15.77
2022-11-27T05:49:18.956Z,18.70
2022-11-27T05:51:51.295Z,15.10
2022-11-27T05:54:19.872Z,13.33
2022-11-27T05:56:48.084Z,12.80
2022-11-27T05:59:16.283Z,14.50
2022-11-27T06:01:44.860Z,12.20
2022-11-27T06:04:14.543Z,14.17
2022-11-27T06:06:42.743Z,11.47
2022-11-27T06:09:13.155Z,16.10
2022-11-27T06:11:42.274Z,13.27
2022-11-27T06:14:11.178Z,13.33
2022-11-27T06:16:39.802Z,12.27
2022-11-27T06:19:08.915Z,10.03
2022-11-27T06:21:39.105Z,10.37
2022-11-27T06:24:07.959Z,9.23
2022-11-27T06:26:36.138Z,11.80
2022-11-27T06:29:05.004Z,12.73
2022-11-27T06:31:34.242Z,9.90
2022-11-27T06:34:03.449Z,12.30
2022-11-27T06:36:33.563Z,8.07
2022-11-27T06:39:04.173Z,11.00
2022-11-27T06:41:33.976Z,11.90
2022-11-27T06:44:02.694Z,11.80
2022-11-27T06:46:31.632Z,15.20
2022-11-27T06:49:00.745Z,12.17
2022-11-27T06:51:31.402Z,10.20
2022-11-27T06:54:02.584Z,14.43
2022-11-27T06:56:32.829Z,14.13
2022-11-27T06:59:02.711Z,14.07
2022-11-27T07:01:32.373Z,17.37
2022-11-27T07:04:02.214Z,27.47
2022-11-27T07:06:30.884Z,20.83
2022-11-27T07:08:59.167Z,17.90
2022-11-27T07:11:32.024Z,18.73
2022-11-27T07:14:01.873Z,12.53
2022-11-27T07:16:33.064Z,14.70
2022-11-27T07:19:02.935Z,14.00
2022-11-27T07:21:31.842Z,16.10
2022-11-27T07:24:00.109Z,12.83
2022-11-27T07:26:30.769Z,11.30
2022-11-27T07:28:59.519Z,10.10
2022-11-27T07:31:30.140Z,8.93
2022-11-27T07:33:58.815Z,11.27
2022-11-27T07:36:29.084Z,9.80
2022-11-27T07:38:58.046Z,11.13
2022-11-27T07:41:32.285Z,8.83
2022-11-27T07:44:04.133Z,12.47
2022-11-27T07:46:34.405Z,7.03
2022-11-27T07:49:02.618Z,9.53
2022-11-27T07:51:31.144Z,9.47
2022-11-27T07:54:01.075Z,10.87
2022-11-27T07:56:30.485Z,9.40
2022-11-27T07:58:58.997Z,9.30
2022-11-27T08:01:28.656Z,17.43
2022-11-27T08:03:57.026Z,12.83
2022-11-27T08:06:27.132Z,13.27
2022-11-27T08:08:56.923Z,10.63
2022-11-27T08:11:29.799Z,15.50
2022-11-27T08:14:00.892Z,11.30
2022-11-27T08:16:31.495Z,12.20
2022-11-27T08:19:00.532Z,13.77
2022-11-27T08:21:30.108Z,9.57
2022-11-27T08:23:58.361Z,12.97
2022-11-27T08:26:27.812Z,8.50
2022-11-27T08:28:56.625Z,13.77
2022-11-27T08:31:25.126Z,10.90
2022-11-27T08:33:55.216Z,12.60
2022-11-27T08:36:26.718Z,10.20
2022-11-27T08:38:55.338Z,11.23
2022-11-27T08:41:23.594Z,8.37
2022-11-27T08:43:51.860Z,6.50
2022-11-27T08:46:20.304Z,3.93
2022-11-27T08:48:48.805Z,3.30
2022-11-27T08:51:18.368Z,3.17
2022-11-27T08:53:46.950Z,4.10
2022-11-27T08:56:18.348Z,6.10
2022-11-27T08:58:47.766Z,6.13
2022-11-27T09:01:17.817Z,4.23
2022-11-27T09:03:46.513Z,4.90
2022-11-27T09:06:17.243Z,5.07
2022-11-27T09:08:47.459Z,5.40
2022-11-27T09:11:17.705Z,10.17
2022-11-27T09:13:46.287Z,6.97
2022-11-27T09:16:16.236Z,5.77
2022-11-27T09:18:46.100Z,7.87
2022-11-27T09:21:16.252Z,7.93
2022-11-27T09:23:46.127Z,8.67
2022-11-27T09:26:15.929Z,8.20
2022-11-27T09:28:45.202Z,8.10
2022-11-27T09:31:15.453Z,10.37
2022-11-27T09:33:44.352Z,7.83
2022-11-27T09:36:14.159Z,11.43
2022-11-27T09:38:43.602Z,7.80
2022-11-27T09:41:35.794Z,8.17
2022-11-27T09:44:17.273Z,8.20
2022-11-27T09:46:46.174Z,14.80
2022-11-27T09:49:18.992Z,5.40
2022-11-27T09:51:52.794Z,7.13
2022-11-27T09:54:25.838Z,12.73
2022-11-27T09:56:57.356Z,4.97
2022-11-27T09:59:34.683Z,11.33
2022-11-27T10:02:03.176Z,7.10
2022-11-27T10:04:50.945Z,6.93
2022-11-27T10:07:31.111Z,7.73
2022-11-27T10:10:12.166Z,10.03
2022-11-27T10:12:49.788Z,7.67
2022-11-27T10:15:36.191Z,6.40
2022-11-27T10:18:10.169Z,5.90
2022-11-27T10:20:44.635Z,6.97
2022-11-27T10:23:21.525Z,6.93
2022-11-27T10:25:51.993Z,5.77
2022-11-27T10:28:32.417Z,5.50
2022-11-27T10:31:05.853Z,5.77
2022-11-27T10:33:42.295Z,4.70
2022-11-27T10:36:16.313Z,5.47
2022-11-27T10:38:45.709Z,5.33
2022-11-27T10:41:47.789Z,8.50
2022-11-27T10:44:24.373Z,5.40
2022-11-27T10:46:56.334Z,6.83
2022-11-27T10:49:24.528Z,11.63
2022-11-27T10:51:52.702Z,6.67
2022-11-27T10:54:27.487Z,5.70
2022-11-27T10:57:13.616Z,5.73
2022-11-27T10:59:48.009Z,8.70
2022-11-27T11:02:31.702Z,10.73
2022-11-27T11:05:34.568Z,7.60
2022-11-27T11:08:04.772Z,9.43
2022-11-27T11:10:36.920Z,9.73
2022-11-27T11:13:18.020Z,6.70
2022-11-27T11:15:57.439Z,6.53
2022-11-27T11:18:27.607Z,12.80
2022-11-27T11:20:58.168Z,8.07
2022-11-27T11:23:32.869Z,7.20
2022-11-27T11:26:05.071Z,9.50
2022-11-27T11:28:39.490Z,9.03
2022-11-27T11:31:17.106Z,8.27
2022-11-27T11:33:54.133Z,12.97
2022-11-27T11:36:22.925Z,6.93
2022-11-27T11:38:51.978Z,7.53
2022-11-27T11:41:20.567Z,9.60
2022-11-27T11:43:56.924Z,9.53
2022-11-27T11:46:28.705Z,8.37
2022-11-27T11:49:00.913Z,10.03
2022-11-27T11:51:44.663Z,10.00
2022-11-27T11:54:32.575Z,11.77
2022-11-27T11:57:04.234Z,8.07
2022-11-27T11:59:45.361Z,9.50
2022-11-27T12:02:40.603Z,9.50
2022-11-27T12:05:32.769Z,10.10
2022-11-27T12:08:28.567Z,8.97
2022-11-27T12:11:03.742Z,9.73
2022-11-27T12:13:45.441Z,8.63
2022-11-27T12:16:19.034Z,11.53
2022-11-27T12:19:01.463Z,10.73
2022-11-27T12:21:39.850Z,8.90
2022-11-27T12:24:24.447Z,10.50
2022-11-27T12:27:02.422Z,8.63
2022-11-27T12:29:53.956Z,10.07
2022-11-27T12:32:40.662Z,7.70
2022-11-27T12:35:31.223Z,6.90
2022-11-27T12:38:20.158Z,7.90
2022-11-27T12:41:12.601Z,13.33
2022-11-27T12:43:45.307Z,9.50
2022-11-27T12:46:19.955Z,10.20
2022-11-27T12:48:54.727Z,7.60
2022-11-27T12:51:28.986Z,7.53
2022-11-27T12:54:03.584Z,8.10
2022-11-27T12:56:37.213Z,7.37
2022-11-27T12:59:16.094Z,8.87
2022-11-27T13:01:48.261Z,13.40
2022-11-27T13:04:23.652Z,11.03
2022-11-27T13:06:59.462Z,7.50
2022-11-27T13:09:38.957Z,8.60
2022-11-27T13:12:08.417Z,7.63
2022-11-27T13:14:39.207Z,11.27
2022-11-27T13:17:16.311Z,9.63
2022-11-27T13:19:47.169Z,9.37
2022-11-27T13:22:27.650Z,15.93
2022-11-27T13:24:56.949Z,13.23
2022-11-27T13:27:28.257Z,15.73
2022-11-27T13:29:59.822Z,9.70
2022-11-27T13:32:31.782Z,12.67
2022-11-27T13:35:04.301Z,10.33
2022-11-27T13:37:36.997Z,12.10
2022-11-27T13:40:07.723Z,11.03
2022-11-27T13:42:37.897Z,10.13
2022-11-27T13:45:11.068Z,14.83
2022-11-27T13:47:42.547Z,9.87
2022-11-27T13:50:13.523Z,9.63
2022-11-27T13:52:57.413Z,10.23
2022-11-27T13:55:28.774Z,8.70
2022-11-27T13:57:59.419Z,10.27
2022-11-27T14:00:37.513Z,6.57
2022-11-27T14:03:06.472Z,8.57
2022-11-27T14:05:41.297Z,10.10
2022-11-27T14:08:24.151Z,7.50
2022-11-27T14:10:59.281Z,7.90
2022-11-27T14:13:40.444Z,7.40
2022-11-27T14:16:24.767Z,6.73
2022-11-27T14:18:54.778Z,6.20
2022-11-27T14:21:26.863Z,7.40
2022-11-27T14:23:56.365Z,6.37
2022-11-27T14:26:26.352Z,13.00
2022-11-27T14:28:56.635Z,10.70
2022-11-27T14:31:29.133Z,7.37
2022-11-27T14:34:14.905Z,7.33
2022-11-27T14:36:44.856Z,7.80
2022-11-27T14:39:24.316Z,9.20
2022-11-27T14:42:00.371Z,11.93
2022-11-27T14:44:29.422Z,10.03
2022-11-27T14:47:00.487Z,13.30
2022-11-27T14:49:30.837Z,12.33
2022-11-27T14:52:02.348Z,14.17
2022-11-27T14:54:35.599Z,13.33
2022-11-27T14:57:05.118Z,16.40
2022-11-27T14:59:33.660Z,12.23
2022-11-27T15:02:04.253Z,10.40
2022-11-27T15:04:37.011Z,11.20
2022-11-27T15:07:08.126Z,10.33
2022-11-27T15:09:38.143Z,10.03
2022-11-27T15:12:16.331Z,19.37
2022-11-27T15:14:48.089Z,20.97
2022-11-27T15:17:21.245Z,11.17
2022-11-27T15:19:49.510Z,12.17
2022-11-27T15:22:18.994Z,9.90
2022-11-27T15:24:59.089Z,11.50
2022-11-27T15:27:28.422Z,9.97
2022-11-27T15:30:12.914Z,15.23
2022-11-27T15:32:52.441Z,10.43
2022-11-27T15:35:27.310Z,10.00
2022-11-27T15:37:57.446Z,15.70
2022-11-27T15:40:31.697Z,54.33
2022-11-27T15:42:59.818Z,33.20
2022-11-27T15:45:31.799Z,30.23
2022-11-27T15:48:01.709Z,26.67
2022-11-27T15:50:30.856Z,29.67
2022-11-27T15:53:00.868Z,16.00
2022-11-27T15:55:30.921Z,16.23
2022-11-27T15:57:59.074Z,12.07
2022-11-27T16:00:27.450Z,10.17
2022-11-27T16:02:56.315Z,9.47
2022-11-27T16:05:24.376Z,12.80
2022-11-27T16:07:55.455Z,8.53
2022-11-27T16:10:23.906Z,11.90
2022-11-27T16:12:55.425Z,9.03
2022-11-27T16:15:26.630Z,12.10
2022-11-27T16:17:58.388Z,14.57
2022-11-27T16:20:27.457Z,12.23
2022-11-27T16:22:55.627Z,14.10
2022-11-27T16:25:25.208Z,25.57
2022-11-27T16:27:59.359Z,15.20
2022-11-27T16:30:30.574Z,15.90
2022-11-27T16:32:59.208Z,18.87
2022-11-27T16:35:27.631Z,14.83
2022-11-27T16:37:55.826Z,18.50
2022-11-27T16:40:24.191Z,13.10
2022-11-27T16:42:52.448Z,15.10
2022-11-27T16:45:22.069Z,20.40
2022-11-27T16:47:50.645Z,16.63
2022-11-27T16:50:19.222Z,21.47
2022-11-27T16:52:53.939Z,18.10
2022-11-27T16:55:23.105Z,16.53
2022-11-27T16:57:51.886Z,14.53
2022-11-27T17:00:22.333Z,13.43
2022-11-27T17:02:51.175Z,21.20
2022-11-27T17:05:19.850Z,17.30
2022-11-27T17:07:48.050Z,24.33
2022-11-27T17:10:16.437Z,30.70
2022-11-27T17:12:44.559Z,26.93
2022-11-27T17:15:13.228Z,18.07
2022-11-27T17:17:43.433Z,14.83
2022-11-27T17:20:12.017Z,17.07
2022-11-27T17:22:40.311Z,17.90
2022-11-27T17:25:11.233Z,17.90
2022-11-27T17:27:39.969Z,17.90
2022-11-27T17:30:10.408Z,15.67
2022-11-27T17:32:38.698Z,18.30
2022-11-27T17:35:09.506Z,16.13
2022-11-27T17:37:37.753Z,11.50
2022-11-27T17:40:07.202Z,15.10
2022-11-27T17:42:35.509Z,15.60
2022-11-27T17:45:03.817Z,22.20
2022-11-27T17:47:33.283Z,20.90
2022-11-27T17:50:01.863Z,21.60
2022-11-27T17:52:31.652Z,22.67
2022-11-27T17:55:00.264Z,23.00
2022-11-27T17:57:28.607Z,20.03
2022-11-27T17:59:56.811Z,18.90
2022-11-27T18:02:25.211Z,23.97
2022-11-27T18:04:53.642Z,17.17
2022-11-27T18:07:22.113Z,16.00
2022-11-27T18:09:54.248Z,14.00
2022-11-27T18:12:22.622Z,11.73
2022-11-27T18:14:56.513Z,13.50
2022-11-27T18:17:29.017Z,10.63
2022-11-27T18:19:59.201Z,14.63
2022-11-27T18:22:27.490Z,14.73
2022-11-27T18:24:57.086Z,15.50
2022-11-27T18:27:25.315Z,14.23
2022-11-27T18:29:53.528Z,41.77
2022-11-27T18:32:22.942Z,62.23
2022-11-27T18:34:54.562Z,20.67
2022-11-27T18:37:23.502Z,11.90
2022-11-27T18:39:51.909Z,13.40
2022-11-27T18:42:21.806Z,19.23
2022-11-27T18:44:49.909Z,13.77
2022-11-27T18:47:19.035Z,13.50
2022-11-27T18:49:49.461Z,18.10
2022-11-27T18:52:17.873Z,14.87
2022-11-27T18:54:46.930Z,14.97
2022-11-27T18:57:15.718Z,12.43
2022-11-27T18:59:48.023Z,21.97
2022-11-27T19:02:17.173Z,30.97
2022-11-27T19:04:45.632Z,25.87
2022-11-27T19:07:14.260Z,24.73
2022-11-27T19:09:44.268Z,27.17
2022-11-27T19:12:13.864Z,34.30
2022-11-27T19:14:42.349Z,34.90
2022-11-27T19:17:12.110Z,39.53
2022-11-27T19:19:55.718Z,19.33
2022-11-27T19:22:24.133Z,21.47
2022-11-27T19:24:52.369Z,16.77
2022-11-27T19:27:20.688Z,17.20
2022-11-27T19:29:50.135Z,16.77
2022-11-27T19:32:20.309Z,16.40
2022-11-27T19:34:51.219Z,31.13
2022-11-27T19:37:33.452Z,18.30
2022-11-27T19:40:03.929Z,15.73
2022-11-27T19:42:32.659Z,19.93
2022-11-27T19:45:01.164Z,22.43
2022-11-27T19:47:31.135Z,28.07
2022-11-27T19:49:59.270Z,24.67
2022-11-27T19:52:27.711Z,23.13
2022-11-27T19:54:55.909Z,22.60
2022-11-27T19:57:25.091Z,25.60
2022-11-27T19:59:53.298Z,25.90
2022-11-27T20:02:24.265Z,24.73
2022-11-27T20:04:55.286Z,22.00
2022-11-27T20:07:24.008Z,25.80
2022-11-27T20:09:52.897Z,19.50
2022-11-27T20:12:21.594Z,18.57
2022-11-27T20:14:49.782Z,25.43
2022-11-27T20:17:19.473Z,23.50
2022-11-27T20:19:47.729Z,30.37
2022-11-27T20:22:17.492Z,32.50
2022-11-27T20:25:11.211Z,15.93
2022-11-27T20:27:35.642Z,18.63
2022-11-27T20:30:06.039Z,17.67
2022-11-27T20:32:34.875Z,13.63
2022-11-27T20:35:04.168Z,12.40
2022-11-27T20:37:34.076Z,13.67
2022-11-27T20:40:02.316Z,11.90
2022-11-27T20:42:30.586Z,10.83
2022-11-27T20:44:58.731Z,14.73
2022-11-27T20:47:26.988Z,14.00
2022-11-27T20:49:55.305Z,12.37
2022-11-27T20:52:24.070Z,15.87
2022-11-27T20:54:55.076Z,14.17
2022-11-27T20:57:24.110Z,12.57
2022-11-27T20:59:52.295Z,14.20
2022-11-27T21:02:20.596Z,21.23
2022-11-27T21:04:48.854Z,27.03
2022-11-27T21:07:17.125Z,27.07
2022-11-27T21:09:45.473Z,14.30
2022-11-27T21:12:16.754Z,16.07
2022-11-27T21:14:45.939Z,14.40
2022-11-27T21:17:14.911Z,17.80
2022-11-27T21:19:44.015Z,15.33
2022-11-27T21:22:12.322Z,13.00
2022-11-27T21:24:40.487Z,12.83
2022-11-27T21:27:09.983Z,13.17
2022-11-27T21:29:40.069Z,14.80
2022-11-27T21:32:08.525Z,13.03
2022-11-27T21:34:37.627Z,21.80
2022-11-27T21:37:06.148Z,16.60
2022-11-27T21:39:36.189Z,18.77
2022-11-27T21:42:05.330Z,14.30
2022-11-27T21:44:34.067Z,15.57
2022-11-27T21:47:05.995Z,20.20
2022-11-27T21:49:34.177Z,17.40
2022-11-27T21:52:02.510Z,12.97
2022-11-27T21:54:36.161Z,19.57
2022-11-27T21:57:04.416Z,21.57
2022-11-27T21:59:32.731Z,36.80
2022-11-27T22:02:01.014Z,23.07
2022-11-27T22:04:30.647Z,14.80
2022-11-27T22:06:59.012Z,20.50
2022-11-27T22:09:30.190Z,16.00
2022-11-27T22:11:58.379Z,16.07
2022-11-27T22:14:26.769Z,12.50
2022-11-27T22:16:56.295Z,15.73
2022-11-27T22:19:24.584Z,14.87
2022-11-27T22:21:54.452Z,14.47
2022-11-27T22:24:22.649Z,11.67
2022-11-27T22:26:53.732Z,14.10
2022-11-27T22:29:22.114Z,10.87
2022-11-27T22:31:50.383Z,11.43
2022-11-27T22:34:18.735Z,12.70
2022-11-27T22:36:47.788Z,13.47
2022-11-27T22:39:17.622Z,15.57
2022-11-27T22:41:47.560Z,13.07
2022-11-27T22:44:18.547Z,15.07
2022-11-27T22:46:48.478Z,17.70
2022-11-27T22:49:18.721Z,12.90
2022-11-27T22:51:47.711Z,10.90
2022-11-27T22:54:18.599Z,14.73
2022-11-27T22:56:47.281Z,11.07
2022-11-27T22:59:34.129Z,13.23
2022-11-27T23:02:06.477Z,14.63
2022-11-27T23:04:35.706Z,14.60
2022-11-27T23:07:04.208Z,12.50
2022-11-27T23:09:33.824Z,20.00
2022-11-27T23:12:01.942Z,20.80
2022-11-27T23:14:30.339Z,13.73
2022-11-27T23:16:58.531Z,15.60
2022-11-27T23:19:26.935Z,15.37
2022-11-27T23:21:55.345Z,14.93
2022-11-27T23:24:23.562Z,13.37
2022-11-27T23:26:53.327Z,10.37
2022-11-27T23:29:21.809Z,14.73
2022-11-27T23:31:50.025Z,12.30
2022-11-27T23:34:18.304Z,15.20
2022-11-27T23:36:46.472Z,14.70
2022-11-27T23:39:15.230Z,14.90
2022-11-27T23:41:43.781Z,17.50
2022-11-27T23:44:13.335Z,15.60
2022-11-27T23:46:41.728Z,15.90
2022-11-27T23:49:09.877Z,18.90
2022-11-27T23:51:38.156Z,17.90
2022-11-27T23:54:09.952Z,23.23
2022-11-27T23:56:39.288Z,15.80
2022-11-27T23:59:08.298Z,18.93
